Time;durP1;ratioP1;P1;durP2;ratioP2;P2;SDS_P1;SDS_P2;PMS_P1;PMS_P2;Temp;Humidity;BMP_temperature;BMP_pressure;BME280_temperature;BME280_humidity;BME280_pressure;Samples;Min_cycle;Max_cycle;Signal;HPM_P1;HPM_P2
2023/12/21 00:00:36;;;;;;;2.00;1.60;;;6.90;1.00;;;;;;5028168;28;20177;-73
2023/12/21 00:03:01;;;;;;;2.30;1.70;;;6.80;1.00;;;;;;5028096;28;20666;-73
2023/12/21 00:05:27;;;;;;;3.57;1.50;;;6.90;1.00;;;;;;5028799;28;20696;-74
2023/12/21 00:07:52;;;;;;;5.67;1.67;;;7.10;1.00;;;;;;5031497;28;20190;-73
2023/12/21 00:10:19;;;;;;;3.77;1.70;;;7.40;1.00;;;;;;5031510;28;20647;-73
2023/12/21 00:12:44;;;;;;;1.60;1.23;;;7.00;1.00;;;;;;5025283;28;20714;-73
2023/12/21 00:15:10;;;;;;;4.40;1.60;;;7.00;1.00;;;;;;5031221;28;20480;-71
2023/12/21 00:17:36;;;;;;;1.83;1.43;;;7.10;1.00;;;;;;5013944;28;20282;-73
2023/12/21 00:20:02;;;;;;;5.73;1.87;;;7.50;1.00;;;;;;5029035;28;20186;-73
2023/12/21 00:22:27;;;;;;;2.23;1.30;;;7.00;1.00;;;;;;5027282;28;20178;-72
2023/12/21 00:24:53;;;;;;;1.73;1.50;;;7.00;1.00;;;;;;5012991;28;20475;-72
2023/12/21 00:27:18;;;;;;;2.23;1.47;;;7.20;1.00;;;;;;5031951;28;20186;-73
2023/12/21 00:29:44;;;;;;;2.57;1.50;;;7.00;1.00;;;;;;5030324;28;20225;-73
2023/12/21 00:32:09;;;;;;;1.30;1.07;;;7.00;1.00;;;;;;5029613;28;20186;-72
2023/12/21 00:34:35;;;;;;;2.30;1.37;;;6.90;1.00;;;;;;5031210;28;20216;-73
2023/12/21 00:37:00;;;;;;;2.47;1.57;;;6.90;1.00;;;;;;5030739;28;22152;-74
2023/12/21 00:39:26;;;;;;;3.40;2.00;;;6.90;1.00;;;;;;5030878;28;20182;-73
2023/12/21 00:41:51;;;;;;;2.10;1.40;;;7.00;1.00;;;;;;5030491;28;20667;-72
2023/12/21 00:44:17;;;;;;;1.77;1.60;;;7.00;1.00;;;;;;5013327;28;20193;-73
2023/12/21 00:46:42;;;;;;;2.30;1.43;;;7.30;1.00;;;;;;5024274;28;20294;-70
2023/12/21 00:49:08;;;;;;;2.00;1.50;;;7.20;1.00;;;;;;5025046;28;20682;-72
2023/12/21 00:51:33;;;;;;;1.53;1.30;;;7.00;1.00;;;;;;5030601;28;20677;-73
2023/12/21 00:53:59;;;;;;;9.13;1.30;;;7.00;1.00;;;;;;5012540;28;20196;-72
2023/12/21 00:56:25;;;;;;;7.57;1.40;;;7.00;1.00;;;;;;5025257;28;20668;-72
2023/12/21 00:58:50;;;;;;;2.10;1.53;;;7.20;1.00;;;;;;5030450;28;20201;-73
2023/12/21 01:01:16;;;;;;;2.37;1.50;;;7.40;1.00;;;;;;5030545;28;20182;-73
2023/12/21 01:03:41;;;;;;;2.30;1.37;;;7.40;1.00;;;;;;5031060;28;20597;-72
2023/12/21 01:06:07;;;;;;;1.83;1.40;;;7.00;1.00;;;;;;5025564;28;20201;-73
2023/12/21 01:08:32;;;;;;;7.70;1.63;;;7.30;1.00;;;;;;5012727;28;20182;-71
2023/12/21 01:10:59;;;;;;;6.00;1.47;;;7.50;1.00;;;;;;5029357;28;20513;-73
2023/12/21 01:13:25;;;;;;;3.43;1.20;;;7.10;1.00;;;;;;5024367;28;20214;-73
2023/12/21 01:15:50;;;;;;;1.43;1.33;;;7.30;1.00;;;;;;5029119;28;20710;-73
2023/12/21 01:18:15;;;;;;;4.47;1.63;;;7.20;1.00;;;;;;5030159;28;20174;-72
2023/12/21 01:20:41;;;;;;;3.33;1.47;;;7.50;1.00;;;;;;5030350;28;20189;-73
2023/12/21 01:23:07;;;;;;;1.57;1.30;;;7.10;1.00;;;;;;5030257;28;20300;-73
2023/12/21 01:25:32;;;;;;;2.80;1.33;;;7.00;1.00;;;;;;5026806;28;20214;-73
2023/12/21 01:27:57;;;;;;;2.07;1.37;;;7.40;1.00;;;;;;5028699;28;20189;-73
2023/12/21 01:30:23;;;;;;;2.60;1.30;;;7.00;1.00;;;;;;5030025;28;20197;-73
2023/12/21 01:32:49;;;;;;;3.40;1.23;;;7.10;1.00;;;;;;5011978;28;20202;-73
2023/12/21 01:35:14;;;;;;;1.20;1.10;;;7.10;1.00;;;;;;5029255;28;20206;-72
2023/12/21 01:37:40;;;;;;;3.47;1.20;;;7.60;1.00;;;;;;5026341;28;20200;-73
2023/12/21 01:40:06;;;;;;;1.80;1.27;;;7.20;1.00;;;;;;5029930;28;20196;-72
2023/12/21 01:42:31;;;;;;;4.83;1.20;;;7.20;1.00;;;;;;5030606;28;20181;-74
2023/12/21 01:44:57;;;;;;;4.23;1.30;;;7.30;1.00;;;;;;5027747;28;20910;-71
2023/12/21 01:47:23;;;;;;;2.23;1.60;;;7.20;1.00;;;;;;5030085;28;20272;-72
2023/12/21 01:49:49;;;;;;;1.30;1.20;;;7.20;1.00;;;;;;5011630;28;20186;-72
2023/12/21 01:52:15;;;;;;;2.80;1.00;;;7.30;1.00;;;;;;5030153;28;20174;-72
2023/12/21 01:54:41;;;;;;;3.73;1.40;;;7.20;1.00;;;;;;5027772;28;20460;-73
2023/12/21 01:57:30;;;;;;;1.43;1.10;;;7.10;1.00;;;;;;5011753;28;20468;-72
2023/12/21 01:59:55;;;;;;;5.23;1.40;;;7.20;1.00;;;;;;5019851;28;20958;-71
2023/12/21 02:02:21;;;;;;;1.20;1.10;;;7.20;1.00;;;;;;5029418;28;20447;-71
2023/12/21 02:04:47;;;;;;;6.40;1.47;;;7.20;1.00;;;;;;5027826;28;20719;-72
2023/12/21 02:07:12;;;;;;;1.40;1.30;;;7.60;1.00;;;;;;5029314;28;20178;-71
2023/12/21 02:09:38;;;;;;;2.20;1.33;;;7.70;1.00;;;;;;5029662;28;20973;-71
2023/12/21 02:12:04;;;;;;;1.80;1.10;;;7.20;1.00;;;;;;5028412;28;20689;-71
2023/12/21 02:14:29;;;;;;;1.57;1.30;;;7.20;1.00;;;;;;5028346;28;20228;-70
2023/12/21 02:17:05;;;;;;;1.50;1.17;;;7.20;1.00;;;;;;5028021;28;20213;-69
2023/12/21 02:19:31;;;;;;;1.50;1.10;;;7.20;1.00;;;;;;5010720;28;20185;-73
2023/12/21 02:21:59;;;;;;;1.63;1.27;;;7.20;1.00;;;;;;5009057;28;20474;-72
2023/12/21 02:24:25;;;;;;;1.80;1.27;;;7.40;1.00;;;;;;5027136;28;20452;-72
2023/12/21 02:26:51;;;;;;;1.50;1.00;;;7.30;1.00;;;;;;5028376;28;20882;-73
2023/12/21 02:29:16;;;;;;;3.27;1.20;;;7.20;1.00;;;;;;5026702;28;20429;-72
2023/12/21 02:31:42;;;;;;;2.33;1.50;;;7.30;1.00;;;;;;5027243;28;20185;-73
2023/12/21 02:34:07;;;;;;;1.77;1.20;;;7.30;1.00;;;;;;5028994;28;20774;-73
2023/12/21 02:36:33;;;;;;;2.17;1.40;;;7.40;1.00;;;;;;5011242;28;20212;-71
2023/12/21 02:38:59;;;;;;;1.57;1.30;;;7.20;1.00;;;;;;5028753;28;20188;-71
2023/12/21 02:41:25;;;;;;;1.60;1.30;;;7.50;1.00;;;;;;5027183;28;20437;-70
2023/12/21 02:43:50;;;;;;;1.70;1.10;;;7.30;1.00;;;;;;5027566;28;20200;-71
2023/12/21 02:46:17;;;;;;;2.63;1.43;;;7.30;1.00;;;;;;5028545;28;20270;-72
2023/12/21 02:48:42;;;;;;;1.90;1.20;;;7.20;1.00;;;;;;5029253;28;20181;-73
2023/12/21 02:51:08;;;;;;;4.53;1.60;;;7.30;1.00;;;;;;5027839;28;20428;-72
2023/12/21 02:53:33;;;;;;;1.03;0.83;;;7.30;1.00;;;;;;5029408;28;20190;-72
2023/12/21 02:55:59;;;;;;;1.63;1.10;;;7.70;1.00;;;;;;5027935;28;20209;-72
2023/12/21 02:58:24;;;;;;;3.33;1.23;;;7.60;1.00;;;;;;5028950;28;20196;-72
2023/12/21 03:00:50;;;;;;;4.70;1.30;;;7.30;1.00;;;;;;5010198;28;20235;-72
2023/12/21 03:03:16;;;;;;;2.67;1.27;;;7.60;1.00;;;;;;5028199;28;20269;-72
2023/12/21 03:05:41;;;;;;;1.73;1.20;;;7.30;1.00;;;;;;5028698;28;20252;-71
2023/12/21 03:08:07;;;;;;;1.73;1.10;;;7.30;1.00;;;;;;5010883;28;20637;-72
2023/12/21 03:10:32;;;;;;;1.70;1.17;;;7.30;1.00;;;;;;5028544;28;20232;-73
2023/12/21 03:12:58;;;;;;;1.10;0.90;;;7.30;1.00;;;;;;5027656;28;20192;-73
2023/12/21 03:15:24;;;;;;;1.73;1.00;;;7.30;1.00;;;;;;5028276;28;20206;-73
2023/12/21 03:17:51;;;;;;;2.10;1.20;;;7.30;1.00;;;;;;5028990;28;20205;-72
2023/12/21 03:20:16;;;;;;;2.30;1.17;;;7.30;1.00;;;;;;5027893;28;20190;-73
2023/12/21 03:22:42;;;;;;;3.83;1.10;;;7.30;1.00;;;;;;5028461;28;20435;-73
2023/12/21 03:25:08;;;;;;;2.60;0.93;;;7.30;1.00;;;;;;5027338;28;20270;-73
2023/12/21 03:27:33;;;;;;;1.30;0.90;;;7.30;1.00;;;;;;5028388;28;20232;-71
2023/12/21 03:29:59;;;;;;;1.27;1.17;;;7.60;1.00;;;;;;5028171;28;20260;-72
2023/12/21 03:32:24;;;;;;;3.33;1.20;;;7.30;1.00;;;;;;5028186;28;20285;-73
2023/12/21 03:34:49;;;;;;;2.40;1.13;;;7.30;1.00;;;;;;5028252;28;20213;-72
2023/12/21 03:37:15;;;;;;;1.43;1.10;;;7.40;1.00;;;;;;5028351;28;20213;-73
2023/12/21 03:39:40;;;;;;;3.00;1.27;;;7.30;1.00;;;;;;5028483;28;20663;-74
2023/12/21 03:42:06;;;;;;;1.10;1.00;;;7.40;1.00;;;;;;5030754;28;20182;-72
2023/12/21 03:44:32;;;;;;;2.50;1.00;;;7.70;1.00;;;;;;5031328;28;20210;-73
2023/12/21 03:46:57;;;;;;;2.60;1.30;;;7.30;1.00;;;;;;5032171;28;20678;-73
2023/12/21 03:49:25;;;;;;;1.20;1.10;;;7.40;1.00;;;;;;5032051;28;20337;-73
2023/12/21 03:51:51;;;;;;;1.40;1.10;;;7.60;1.00;;;;;;5008692;28;20187;-73
2023/12/21 03:54:16;;;;;;;3.20;1.30;;;7.40;1.00;;;;;;5029544;28;20444;-72
2023/12/21 03:56:42;;;;;;;2.03;1.07;;;7.80;1.00;;;;;;5032024;28;20478;-73
2023/12/21 03:59:07;;;;;;;1.60;1.30;;;7.40;1.00;;;;;;5031609;28;20257;-74
2023/12/21 04:01:33;;;;;;;3.00;1.10;;;7.30;1.00;;;;;;5030025;28;20672;-73
2023/12/21 04:03:58;;;;;;;2.60;1.20;;;7.30;1.00;;;;;;5028747;28;20182;-71
2023/12/21 04:06:24;;;;;;;2.03;1.10;;;7.20;1.00;;;;;;5031406;28;20273;-72
2023/12/21 04:08:51;;;;;;;1.10;1.00;;;7.70;1.00;;;;;;5014356;28;20224;-71
2023/12/21 04:11:17;;;;;;;1.30;1.00;;;7.90;1.00;;;;;;5031336;28;20182;-72
2023/12/21 04:13:42;;;;;;;1.30;1.10;;;7.20;1.00;;;;;;5009014;28;20463;-72
2023/12/21 04:16:08;;;;;;;1.20;1.00;;;7.30;1.00;;;;;;5031098;28;20205;-71
2023/12/21 04:18:33;;;;;;;1.43;1.13;;;7.20;1.00;;;;;;5031719;28;20177;-73
2023/12/21 04:20:59;;;;;;;1.43;0.97;;;7.20;1.00;;;;;;5031653;28;20729;-73
2023/12/21 04:23:24;;;;;;;2.10;1.00;;;7.70;1.00;;;;;;5026182;28;20196;-74
2023/12/21 04:25:50;;;;;;;1.23;1.00;;;7.20;1.00;;;;;;5030861;28;20762;-73
2023/12/21 04:28:16;;;;;;;3.27;1.10;;;7.10;1.00;;;;;;5031701;28;20195;-73
2023/12/21 04:30:41;;;;;;;1.63;1.00;;;7.60;1.00;;;;;;5031196;28;20690;-73
2023/12/21 04:33:10;;;;;;;1.33;1.00;;;7.70;1.00;;;;;;5026694;28;20193;-73
2023/12/21 04:35:35;;;;;;;2.60;1.00;;;7.20;1.00;;;;;;5031020;28;20666;-74
2023/12/21 04:38:01;;;;;;;1.40;1.10;;;7.60;1.00;;;;;;5031732;28;20503;-73
2023/12/21 04:40:26;;;;;;;2.70;1.13;;;7.10;1.00;;;;;;5030561;28;20556;-72
2023/12/21 04:42:52;;;;;;;1.57;1.30;;;7.60;1.00;;;;;;5031235;28;20185;-73
2023/12/21 04:45:18;;;;;;;1.27;1.00;;;7.20;1.00;;;;;;5030079;28;20197;-73
2023/12/21 04:47:44;;;;;;;2.13;1.00;;;7.50;1.00;;;;;;5031503;28;20186;-71
2023/12/21 04:50:10;;;;;;;1.27;1.00;;;7.20;1.00;;;;;;5028768;28;20189;-71
2023/12/21 04:52:36;;;;;;;2.17;1.13;;;7.20;1.00;;;;;;5029785;28;20583;-70
2023/12/21 04:55:01;;;;;;;1.10;1.00;;;7.30;1.00;;;;;;5012770;28;20731;-72
2023/12/21 04:57:27;;;;;;;1.60;1.10;;;7.20;1.00;;;;;;5030826;28;20551;-71
2023/12/21 04:59:52;;;;;;;1.63;1.10;;;7.30;1.00;;;;;;5030385;28;20213;-72
2023/12/21 05:02:18;;;;;;;1.00;0.80;;;7.20;1.00;;;;;;5029803;28;20182;-71
2023/12/21 05:04:43;;;;;;;1.43;1.00;;;7.30;1.00;;;;;;5023912;28;20221;-71
2023/12/21 05:07:10;;;;;;;1.27;1.03;;;7.30;1.00;;;;;;5030564;28;20701;-73
2023/12/21 05:09:36;;;;;;;1.30;1.00;;;7.60;1.00;;;;;;5030840;28;20851;-72
2023/12/21 05:12:02;;;;;;;2.70;1.17;;;7.30;1.00;;;;;;5027050;28;20452;-72
2023/12/21 05:14:28;;;;;;;1.37;1.10;;;7.30;1.00;;;;;;5012293;28;20456;-71
2023/12/21 05:16:53;;;;;;;1.03;0.93;;;7.30;1.00;;;;;;5030461;28;20468;-72
2023/12/21 05:19:19;;;;;;;2.10;0.80;;;7.40;1.00;;;;;;5029920;28;20186;-72
2023/12/21 05:21:44;;;;;;;1.73;0.80;;;7.30;1.00;;;;;;5029683;28;20182;-72
2023/12/21 05:24:10;;;;;;;1.20;0.90;;;7.50;1.00;;;;;;5028701;28;20367;-72
2023/12/21 05:26:35;;;;;;;1.50;1.03;;;7.90;1.00;;;;;;5029818;28;20563;-74
2023/12/21 05:29:02;;;;;;;1.70;1.10;;;7.50;1.00;;;;;;5012513;28;20185;-72
2023/12/21 05:31:27;;;;;;;1.10;1.00;;;7.80;1.00;;;;;;5030094;28;20268;-73
2023/12/21 05:33:53;;;;;;;2.03;0.93;;;7.40;1.00;;;;;;5028890;28;20547;-73
2023/12/21 05:36:23;;;;;;;1.20;0.90;;;7.50;1.00;;;;;;5029642;28;20241;-73
2023/12/21 05:38:49;;;;;;;1.70;1.00;;;7.50;1.00;;;;;;5030461;28;20180;-73
2023/12/21 05:41:15;;;;;;;1.40;1.00;;;7.60;1.00;;;;;;5030067;28;20955;-73
2023/12/21 05:43:41;;;;;;;1.13;0.90;;;7.70;1.00;;;;;;5029878;28;20186;-72
2023/12/21 05:46:06;;;;;;;1.10;0.90;;;7.80;1.00;;;;;;5008369;28;20260;-73
2023/12/21 05:48:32;;;;;;;1.07;0.83;;;7.70;1.00;;;;;;5028840;28;20424;-72
2023/12/21 05:50:58;;;;;;;2.37;0.90;;;7.90;1.00;;;;;;5029806;28;20198;-72
2023/12/21 05:53:24;;;;;;;3.50;0.90;;;7.80;1.00;;;;;;5029811;28;20447;-73
2023/12/21 05:55:49;;;;;;;1.20;0.90;;;8.20;1.00;;;;;;5029078;28;20283;-72
2023/12/21 05:58:15;;;;;;;1.00;0.87;;;8.30;1.00;;;;;;5029768;28;20174;-74
2023/12/21 06:00:41;;;;;;;3.10;1.00;;;7.80;1.00;;;;;;5029541;28;20201;-72
2023/12/21 06:03:06;;;;;;;1.20;0.80;;;7.80;1.00;;;;;;5029746;28;20577;-72
2023/12/21 06:05:32;;;;;;;1.00;0.80;;;7.80;1.00;;;;;;5007432;28;20197;-72
2023/12/21 06:07:57;;;;;;;1.20;0.90;;;7.80;1.00;;;;;;5029702;28;20639;-74
2023/12/21 06:10:23;;;;;;;1.27;0.90;;;7.80;1.00;;;;;;5029329;28;20193;-72
2023/12/21 06:12:49;;;;;;;1.87;0.90;;;7.90;1.00;;;;;;5029608;28;20189;-72
2023/12/21 06:15:14;;;;;;;1.10;0.80;;;7.90;1.00;;;;;;5027753;28;20206;-72
2023/12/21 06:17:40;;;;;;;1.30;0.90;;;7.90;1.00;;;;;;5029048;28;20208;-73
2023/12/21 06:20:06;;;;;;;1.00;0.80;;;7.90;1.00;;;;;;5029580;28;20181;-73
2023/12/21 06:22:32;;;;;;;1.07;0.83;;;8.00;1.00;;;;;;5011401;28;20815;-73
2023/12/21 06:24:57;;;;;;;1.10;0.80;;;7.90;1.00;;;;;;5027994;28;20452;-72
2023/12/21 06:27:23;;;;;;;1.10;0.90;;;7.90;1.00;;;;;;5029408;28;20193;-73
2023/12/21 06:29:48;;;;;;;1.80;1.20;;;7.90;1.00;;;;;;5011354;28;20180;-74
2023/12/21 06:32:14;;;;;;;1.00;0.83;;;7.90;1.00;;;;;;5027687;28;20264;-70
2023/12/21 06:34:40;;;;;;;1.20;0.90;;;7.90;1.00;;;;;;5028503;28;20206;-73
2023/12/21 06:37:07;;;;;;;1.33;1.10;;;7.90;1.00;;;;;;5029356;28;20460;-71
2023/12/21 06:39:33;;;;;;;1.30;0.90;;;7.90;1.00;;;;;;5026704;28;20233;-72
2023/12/21 06:41:58;;;;;;;1.10;0.80;;;7.90;1.00;;;;;;5010331;28;21026;-73
2023/12/21 06:44:24;;;;;;;1.20;1.00;;;7.90;1.00;;;;;;5010874;28;20456;-73
2023/12/21 06:46:50;;;;;;;1.10;0.90;;;7.90;1.00;;;;;;5028840;28;20717;-73
2023/12/21 06:49:16;;;;;;;1.43;0.90;;;7.90;1.00;;;;;;5027782;28;20231;-70
2023/12/21 06:51:44;;;;;;;1.00;0.70;;;7.90;1.00;;;;;;5026487;28;20436;-72
2023/12/21 06:54:10;;;;;;;1.00;0.80;;;7.90;1.00;;;;;;5028600;28;20551;-73
2023/12/21 06:56:36;;;;;;;1.00;0.80;;;7.90;1.00;;;;;;5028634;28;20472;-74
2023/12/21 06:59:02;;;;;;;1.00;0.70;;;7.90;1.00;;;;;;5028139;28;20173;-72
2023/12/21 07:01:28;;;;;;;1.00;0.77;;;7.90;1.00;;;;;;5009684;28;20481;-72
2023/12/21 07:03:54;;;;;;;1.20;1.00;;;8.00;1.00;;;;;;5021614;28;20176;-73
2023/12/21 07:06:20;;;;;;;1.00;0.80;;;7.90;1.00;;;;;;5028144;28;21048;-73
2023/12/21 07:08:46;;;;;;;4.30;0.87;;;7.80;1.00;;;;;;5030212;28;20421;-72
2023/12/21 07:11:12;;;;;;;1.03;0.73;;;7.90;1.00;;;;;;5027943;28;20434;-72
2023/12/21 07:13:38;;;;;;;1.00;0.80;;;7.90;1.00;;;;;;5028000;28;20523;-72
2023/12/21 07:16:04;;;;;;;1.27;1.00;;;7.90;1.00;;;;;;5029456;28;20285;-73
2023/12/21 07:18:29;;;;;;;1.23;1.10;;;7.90;1.00;;;;;;5014820;28;20277;-73
2023/12/21 07:20:55;;;;;;;1.20;1.00;;;7.90;1.00;;;;;;5014856;28;21043;-74
2023/12/21 07:23:20;;;;;;;1.10;0.87;;;8.00;1.00;;;;;;5030564;28;20186;-73
2023/12/21 07:25:45;;;;;;;1.10;0.87;;;7.90;1.00;;;;;;5032551;28;20286;-73
2023/12/21 07:28:11;;;;;;;1.10;0.80;;;8.00;1.00;;;;;;5031322;28;20186;-75
2023/12/21 07:30:36;;;;;;;0.90;0.70;;;8.00;1.00;;;;;;5031055;28;20255;-73
2023/12/21 07:33:02;;;;;;;1.00;0.80;;;8.00;1.00;;;;;;5032792;28;20181;-72
2023/12/21 07:35:28;;;;;;;1.20;0.87;;;8.00;1.00;;;;;;5031951;28;20202;-73
2023/12/21 07:37:53;;;;;;;1.10;0.73;;;8.10;1.00;;;;;;5030738;28;20209;-74
2023/12/21 07:40:19;;;;;;;1.40;0.77;;;8.10;1.00;;;;;;5098455;22;20220;-73
2023/12/21 07:42:45;;;;;;;1.70;0.90;;;8.00;1.00;;;;;;5043485;28;20169;-72
2023/12/21 07:45:10;;;;;;;1.13;0.80;;;8.20;1.00;;;;;;5056905;28;20181;-73
2023/12/21 07:47:36;;;;;;;2.40;0.70;;;8.20;1.00;;;;;;5042091;28;20528;-73
2023/12/21 07:50:02;;;;;;;1.37;0.83;;;8.10;1.00;;;;;;5058492;28;20542;-73
2023/12/21 07:52:27;;;;;;;1.30;0.90;;;8.10;1.00;;;;;;5039274;28;20234;-73
2023/12/21 07:54:53;;;;;;;1.10;0.80;;;8.20;1.00;;;;;;5067220;28;20495;-73
2023/12/21 07:57:18;;;;;;;1.10;0.87;;;8.10;1.00;;;;;;5039899;28;20654;-73
2023/12/21 07:59:44;;;;;;;1.63;0.80;;;8.20;1.00;;;;;;5041722;28;20199;-72
2023/12/21 08:02:10;;;;;;;1.33;0.80;;;8.20;1.00;;;;;;5049336;28;20541;-73
2023/12/21 08:04:35;;;;;;;2.17;0.87;;;8.20;1.00;;;;;;5036108;28;20184;-74
2023/12/21 08:07:01;;;;;;;1.10;0.80;;;8.20;1.00;;;;;;5043169;28;20195;-74
2023/12/21 08:09:26;;;;;;;1.10;1.00;;;8.10;1.00;;;;;;5036793;28;20181;-72
2023/12/21 08:11:52;;;;;;;1.00;0.70;;;8.20;1.00;;;;;;5046796;28;20199;-73
2023/12/21 08:14:17;;;;;;;1.20;1.00;;;8.20;1.00;;;;;;5043083;28;20264;-73
2023/12/21 08:16:43;;;;;;;1.10;0.90;;;8.40;1.00;;;;;;5042101;28;20590;-73
2023/12/21 08:19:08;;;;;;;1.30;0.80;;;8.70;1.00;;;;;;5063418;28;20185;-73
2023/12/21 08:21:34;;;;;;;1.47;1.03;;;9.10;1.00;;;;;;5070468;28;20207;-73
2023/12/21 08:24:01;;;;;;;1.30;0.83;;;8.90;1.00;;;;;;5066165;28;20176;-73
2023/12/21 08:26:27;;;;;;;1.33;0.93;;;8.70;1.00;;;;;;5071672;28;20271;-72
2023/12/21 08:28:52;;;;;;;1.10;0.80;;;8.50;1.00;;;;;;5056501;28;20514;-73
2023/12/21 08:31:28;;;;;;;1.10;0.80;;;8.40;1.00;;;;;;5052498;28;20201;-73
2023/12/21 08:33:54;;;;;;;1.13;0.83;;;8.40;1.00;;;;;;5038666;28;20191;-72
2023/12/21 08:36:20;;;;;;;1.50;1.07;;;8.30;1.00;;;;;;5043463;28;20517;-74
2023/12/21 08:38:45;;;;;;;1.20;0.97;;;8.30;1.00;;;;;;5060002;28;20422;-74
2023/12/21 08:41:11;;;;;;;1.20;0.97;;;8.30;1.00;;;;;;5056278;28;20205;-73
2023/12/21 08:43:37;;;;;;;1.10;0.80;;;8.40;1.00;;;;;;5060535;28;20251;-73
2023/12/21 08:46:03;;;;;;;1.20;0.90;;;8.30;1.00;;;;;;5058158;28;20185;-73
2023/12/21 08:48:29;;;;;;;1.83;0.90;;;8.30;1.00;;;;;;5042679;28;20651;-73
2023/12/21 08:50:55;;;;;;;1.10;0.80;;;8.30;1.00;;;;;;5066873;28;20449;-73
2023/12/21 08:53:21;;;;;;;1.47;1.10;;;8.30;1.00;;;;;;5042090;28;20248;-72
2023/12/21 08:55:46;;;;;;;0.90;0.67;;;8.30;1.00;;;;;;5053463;28;20280;-73
2023/12/21 08:58:12;;;;;;;1.00;0.80;;;8.30;1.00;;;;;;5066103;28;20659;-74
2023/12/21 09:00:37;;;;;;;1.00;0.87;;;8.40;1.00;;;;;;5054089;28;20204;-73
2023/12/21 09:03:03;;;;;;;1.50;0.93;;;8.40;1.00;;;;;;5054518;28;20187;-73
2023/12/21 09:05:28;;;;;;;1.10;0.90;;;8.40;1.00;;;;;;5052041;28;20654;-73
2023/12/21 09:07:54;;;;;;;1.00;0.80;;;8.40;1.00;;;;;;5060548;28;20184;-73
2023/12/21 09:10:20;;;;;;;1.30;0.90;;;8.40;1.00;;;;;;5043298;28;20216;-73
2023/12/21 09:12:46;;;;;;;1.30;0.87;;;8.40;1.00;;;;;;5064321;28;20330;-73
2023/12/21 09:15:11;;;;;;;1.40;0.77;;;8.40;1.00;;;;;;5051629;28;20268;-73
2023/12/21 09:17:37;;;;;;;1.20;0.80;;;8.40;1.00;;;;;;5053834;28;20196;-73
2023/12/21 09:20:04;;;;;;;1.17;1.07;;;8.50;1.00;;;;;;5064411;28;20196;-73
2023/12/21 09:22:29;;;;;;;4.23;0.80;;;8.50;1.00;;;;;;5053595;28;20177;-73
2023/12/21 09:24:55;;;;;;;1.10;0.90;;;8.60;1.00;;;;;;5059227;28;20418;-74
2023/12/21 09:27:20;;;;;;;1.30;1.00;;;8.60;1.00;;;;;;5054138;28;20166;-73
2023/12/21 09:29:46;;;;;;;1.60;0.87;;;8.80;1.00;;;;;;5064567;28;20187;-74
2023/12/21 09:32:11;;;;;;;1.17;0.80;;;8.80;1.00;;;;;;5041036;28;20180;-73
2023/12/21 09:34:38;;;;;;;1.00;0.70;;;8.70;1.00;;;;;;5066740;28;20268;-73
2023/12/21 09:37:07;;;;;;;1.10;0.70;;;8.70;1.00;;;;;;5048480;28;20262;-74
2023/12/21 09:39:32;;;;;;;1.00;0.73;;;8.70;1.00;;;;;;5062463;28;20435;-71
2023/12/21 09:42:01;;;;;;;1.00;0.70;;;8.60;1.00;;;;;;5038156;28;20450;-74
2023/12/21 09:44:28;;;;;;;1.03;0.80;;;8.60;1.00;;;;;;5055283;28;20196;-74
2023/12/21 09:46:54;;;;;;;1.40;0.90;;;8.70;1.00;;;;;;5050698;28;21051;-73
2023/12/21 09:49:20;;;;;;;1.00;0.80;;;8.60;1.00;;;;;;5041740;28;20489;-73
2023/12/21 09:51:46;;;;;;;1.00;0.80;;;8.70;1.00;;;;;;5069956;28;20821;-73
2023/12/21 09:54:13;;;;;;;1.00;0.80;;;8.80;1.00;;;;;;5052950;28;20422;-72
2023/12/21 09:56:40;;;;;;;1.10;0.80;;;8.80;1.00;;;;;;5038155;28;20980;-74
2023/12/21 09:59:07;;;;;;;1.00;0.80;;;8.70;1.00;;;;;;5062933;28;20422;-74
2023/12/21 10:01:33;;;;;;;1.30;0.70;;;8.70;1.00;;;;;;5060682;28;20432;-73
2023/12/21 10:03:59;;;;;;;1.60;0.80;;;8.80;1.00;;;;;;5041375;28;20820;-74
2023/12/21 10:06:26;;;;;;;1.00;0.70;;;8.90;1.00;;;;;;5039759;28;20172;-73
2023/12/21 10:08:52;;;;;;;1.20;0.80;;;8.90;1.00;;;;;;5059759;28;20172;-73
2023/12/21 10:11:19;;;;;;;1.10;0.70;;;8.90;1.00;;;;;;5060260;28;20583;-73
2023/12/21 10:13:48;;;;;;;1.00;0.70;;;9.00;1.00;;;;;;5055173;28;20189;-74
2023/12/21 10:16:14;;;;;;;2.00;0.80;;;9.10;1.00;;;;;;5058540;28;20467;-73
2023/12/21 10:18:40;;;;;;;3.53;1.00;;;9.10;1.00;;;;;;5040409;28;20464;-73
2023/12/21 10:21:08;;;;;;;1.53;0.83;;;9.10;1.00;;;;;;5066239;28;20461;-74
2023/12/21 10:23:33;;;;;;;1.00;0.70;;;9.00;1.00;;;;;;5065059;28;20789;-73
2023/12/21 10:25:59;;;;;;;1.10;0.90;;;8.90;1.00;;;;;;5052738;28;20509;-73
2023/12/21 10:28:25;;;;;;;1.00;0.70;;;9.00;1.00;;;;;;5049750;28;20192;-72
2023/12/21 10:30:55;;;;;;;1.27;0.80;;;8.90;1.00;;;;;;5058569;28;20211;-73
2023/12/21 10:33:20;;;;;;;1.93;0.90;;;8.90;1.00;;;;;;5042606;28;20171;-72
2023/12/21 10:35:46;;;;;;;1.20;0.73;;;8.90;1.00;;;;;;5062974;28;20435;-73
2023/12/21 10:38:11;;;;;;;1.50;0.90;;;8.90;1.00;;;;;;5061116;28;20173;-73
2023/12/21 10:40:37;;;;;;;1.00;0.80;;;9.00;1.00;;;;;;5067301;28;20208;-72
2023/12/21 10:43:03;;;;;;;1.00;0.70;;;9.00;1.00;;;;;;5062077;28;20177;-73
2023/12/21 10:45:28;;;;;;;1.73;0.93;;;8.90;1.00;;;;;;5058267;28;20184;-74
2023/12/21 10:47:55;;;;;;;1.10;0.80;;;9.00;1.00;;;;;;5062626;28;20419;-74
2023/12/21 10:50:21;;;;;;;1.50;0.73;;;9.00;1.00;;;;;;5036738;28;20304;-73
2023/12/21 10:52:47;;;;;;;1.10;0.83;;;9.10;1.00;;;;;;5057766;28;20769;-73
2023/12/21 10:55:17;;;;;;;1.53;1.03;;;9.10;1.00;;;;;;5045214;28;20428;-74
2023/12/21 10:57:43;;;;;;;1.20;1.00;;;9.10;1.00;;;;;;5060640;28;20515;-73
2023/12/21 11:00:15;;;;;;;1.77;1.20;;;9.10;1.00;;;;;;5057555;28;20459;-74
2023/12/21 11:02:46;;;;;;;1.17;0.87;;;9.20;1.00;;;;;;5045906;28;20932;-74
2023/12/21 11:05:19;;;;;;;1.00;0.80;;;9.20;1.00;;;;;;5060088;28;20519;-74
2023/12/21 11:07:49;;;;;;;1.00;0.83;;;9.20;1.00;;;;;;5035174;28;20415;-72
2023/12/21 11:10:19;;;;;;;2.53;1.00;;;9.20;1.00;;;;;;5053269;28;20862;-73
2023/12/21 11:12:44;;;;;;;1.20;1.00;;;9.20;1.00;;;;;;5038181;28;20420;-73
2023/12/21 11:15:15;;;;;;;1.90;1.17;;;9.30;1.00;;;;;;5052771;28;20427;-73
2023/12/21 11:17:44;;;;;;;1.30;0.90;;;9.30;1.00;;;;;;5059364;28;20204;-73
2023/12/21 11:20:13;;;;;;;1.47;1.27;;;9.30;1.00;;;;;;5060001;28;20442;-73
2023/12/21 11:22:39;;;;;;;1.50;1.17;;;9.30;1.00;;;;;;5057582;28;20442;-73
2023/12/21 11:25:08;;;;;;;1.10;0.90;;;9.20;1.00;;;;;;5041134;28;20442;-74
2023/12/21 11:27:36;;;;;;;1.77;1.10;;;9.20;1.00;;;;;;5044294;28;20428;-73
2023/12/21 11:30:12;;;;;;;1.40;1.00;;;9.20;1.00;;;;;;5057563;28;20446;-73
2023/12/21 11:32:42;;;;;;;1.20;1.07;;;9.10;1.00;;;;;;5050330;28;20442;-73
2023/12/21 11:35:23;;;;;;;1.10;0.90;;;9.20;1.00;;;;;;5041948;28;20427;-74
2023/12/21 11:37:56;;;;;;;1.40;1.10;;;9.20;1.00;;;;;;5049381;28;21016;-73
2023/12/21 11:40:23;;;;;;;1.47;1.10;;;9.30;1.00;;;;;;5056864;28;20486;-74
2023/12/21 11:42:50;;;;;;;1.83;1.30;;;9.30;1.00;;;;;;5033980;28;20412;-73
2023/12/21 11:45:25;;;;;;;1.43;1.10;;;9.30;1.00;;;;;;5050235;28;20916;-73
2023/12/21 11:47:53;;;;;;;1.20;1.10;;;9.40;1.00;;;;;;5059862;28;20432;-73
2023/12/21 11:50:20;;;;;;;1.30;1.00;;;9.40;1.00;;;;;;5043986;28;20457;-74
2023/12/21 11:52:47;;;;;;;1.17;0.90;;;9.40;1.00;;;;;;5051186;28;20432;-72
2023/12/21 11:55:26;;;;;;;1.23;1.10;;;9.30;1.00;;;;;;5044894;28;20438;-73
2023/12/21 11:58:06;;;;;;;1.50;1.23;;;9.30;1.00;;;;;;5055707;28;20455;-73
2023/12/21 12:00:32;;;;;;;1.50;1.30;;;9.30;1.00;;;;;;5060295;28;20932;-73
2023/12/21 12:02:59;;;;;;;1.97;1.27;;;9.20;1.00;;;;;;5052725;28;20419;-73
2023/12/21 12:05:24;;;;;;;1.33;1.23;;;9.30;1.00;;;;;;5052938;28;20426;-72
2023/12/21 12:07:50;;;;;;;3.77;1.87;;;9.30;1.00;;;;;;5049178;28;20815;-72
2023/12/21 12:10:18;;;;;;;1.30;1.20;;;9.40;1.00;;;;;;5061205;28;20205;-73
2023/12/21 12:12:44;;;;;;;1.83;1.17;;;9.90;1.00;;;;;;5054172;28;20260;-73
2023/12/21 12:15:10;;;;;;;1.17;1.07;;;9.80;1.00;;;;;;5061490;28;20443;-73
2023/12/21 12:17:42;;;;;;;1.47;1.10;;;9.70;1.00;;;;;;5052916;28;20502;-73
2023/12/21 12:20:11;;;;;;;1.60;1.20;;;9.60;1.00;;;;;;5042309;28;20258;-74
2023/12/21 12:22:37;;;;;;;1.30;1.07;;;9.60;1.00;;;;;;5064788;28;20505;-73
2023/12/21 12:25:06;;;;;;;1.60;1.20;;;9.60;1.00;;;;;;5050950;28;20502;-73
2023/12/21 12:27:32;;;;;;;1.23;1.00;;;9.60;1.00;;;;;;5067454;28;20188;-73
2023/12/21 12:29:58;;;;;;;1.30;1.03;;;9.60;1.00;;;;;;5072383;28;20915;-74
2023/12/21 12:32:26;;;;;;;1.70;1.20;;;9.60;1.00;;;;;;5060984;28;20183;-73
2023/12/21 12:34:51;;;;;;;1.00;0.80;;;9.60;1.00;;;;;;5065438;28;20407;-72
2023/12/21 12:37:20;;;;;;;1.10;0.90;;;9.60;1.00;;;;;;5054511;28;20504;-72
2023/12/21 12:39:47;;;;;;;2.63;0.90;;;9.60;1.00;;;;;;5071925;28;20176;-72
2023/12/21 12:42:13;;;;;;;1.10;0.90;;;9.60;1.00;;;;;;5042617;28;20427;-73
2023/12/21 12:44:38;;;;;;;1.30;0.80;;;9.60;1.00;;;;;;5063357;28;20764;-72
2023/12/21 12:47:07;;;;;;;1.73;1.07;;;9.60;1.00;;;;;;5043062;28;20203;-72
2023/12/21 12:49:36;;;;;;;2.13;1.47;;;9.60;1.00;;;;;;5049951;28;20411;-73
2023/12/21 12:52:04;;;;;;;2.40;0.80;;;9.60;1.00;;;;;;5063826;28;20418;-73
2023/12/21 12:54:32;;;;;;;1.40;1.10;;;9.70;1.00;;;;;;5064637;28;20464;-73
2023/12/21 12:57:03;;;;;;;1.20;1.10;;;9.70;1.00;;;;;;5063518;28;20455;-73
2023/12/21 12:59:28;;;;;;;1.30;1.10;;;9.70;1.00;;;;;;5062430;28;20422;-73
2023/12/21 13:01:54;;;;;;;1.37;1.00;;;9.70;1.00;;;;;;5043769;28;21158;-72